createdAt,value
2022-11-17T00:02:21.369Z,8.90
2022-11-17T00:04:49.753Z,9.50
2022-11-17T00:07:18.000Z,8.70
2022-11-17T00:09:46.296Z,9.70
2022-11-17T00:12:33.508Z,9.70
2022-11-17T00:15:01.914Z,8.20
2022-11-17T00:17:30.207Z,8.20
2022-11-17T00:20:17.242Z,8.50
2022-11-17T00:22:45.632Z,10.40
2022-11-17T00:25:14.082Z,10.00
2022-11-17T00:27:42.404Z,8.80
2022-11-17T00:30:31.047Z,10.00
2022-11-17T00:33:24.762Z,8.80
2022-11-17T00:35:54.846Z,9.60
2022-11-17T00:38:23.217Z,9.70
2022-11-17T00:40:51.614Z,9.40
2022-11-17T00:43:19.898Z,9.70
2022-11-17T00:45:48.274Z,9.10
2022-11-17T00:48:17.267Z,10.50
2022-11-17T00:50:45.712Z,10.10
2022-11-17T00:53:13.960Z,10.10
2022-11-17T00:55:45.234Z,9.70
2022-11-17T00:58:13.581Z,9.80
2022-11-17T01:00:41.891Z,9.00
2022-11-17T01:03:10.180Z,10.60
2022-11-17T01:05:38.472Z,10.50
2022-11-17T01:08:06.750Z,10.30
2022-11-17T01:10:35.966Z,9.50
2022-11-17T01:13:04.477Z,10.00
2022-11-17T01:15:34.216Z,10.60
2022-11-17T01:18:03.202Z,10.40
2022-11-17T01:20:31.493Z,10.10
2022-11-17T01:22:59.844Z,10.60
2022-11-17T01:25:28.160Z,9.80
2022-11-17T01:27:56.486Z,10.40
2022-11-17T01:30:24.776Z,10.40
2022-11-17T01:32:53.180Z,10.10
2022-11-17T01:35:21.500Z,9.70
2022-11-17T01:37:49.801Z,9.80
2022-11-17T01:40:46.201Z,10.20
2022-11-17T01:43:14.557Z,9.10
2022-11-17T01:45:43.835Z,10.20
2022-11-17T01:48:13.912Z,9.30
2022-11-17T01:50:49.662Z,9.10
2022-11-17T01:53:20.408Z,9.50
2022-11-17T01:55:56.661Z,9.60
2022-11-17T01:58:31.602Z,9.90
2022-11-17T02:00:59.992Z,9.90
2022-11-17T02:03:33.172Z,9.00
2022-11-17T02:06:09.042Z,10.00
2022-11-17T02:08:40.358Z,8.70
2022-11-17T02:11:14.576Z,9.70
2022-11-17T02:13:42.912Z,10.80
2022-11-17T02:16:15.890Z,8.30
2022-11-17T02:18:46.062Z,10.30
2022-11-17T02:21:46.081Z,10.70
2022-11-17T02:24:41.774Z,9.50
2022-11-17T02:27:46.623Z,14.50
2022-11-17T02:33:12.908Z,11.90
2022-11-17T02:36:24.516Z,9.70
2022-11-17T02:39:17.955Z,10.90
2022-11-17T02:41:55.165Z,10.00
2022-11-17T02:44:32.731Z,9.80
2022-11-17T02:47:17.287Z,9.20
2022-11-17T02:49:51.986Z,10.10
2022-11-17T02:52:21.826Z,9.70
2022-11-17T02:54:50.124Z,9.60
2022-11-17T02:57:39.262Z,9.70
2022-11-17T03:00:17.023Z,8.10
2022-11-17T03:03:38.911Z,9.80
2022-11-17T03:06:30.088Z,10.10
2022-11-17T03:09:22.283Z,9.60
2022-11-17T03:12:16.471Z,9.10
2022-11-17T03:15:03.392Z,9.40
2022-11-17T03:17:46.540Z,14.90
2022-11-17T03:20:23.404Z,11.00
2022-11-17T03:23:05.299Z,8.70
2022-11-17T03:25:38.055Z,8.80
2022-11-17T03:28:10.118Z,9.70
2022-11-17T03:30:42.405Z,11.50
2022-11-17T03:33:15.889Z,9.90
2022-11-17T03:35:50.985Z,9.70
2022-11-17T03:38:24.096Z,11.10
2022-11-17T03:41:16.650Z,9.90
2022-11-17T03:43:48.836Z,8.70
2022-11-17T03:46:20.425Z,11.20
2022-11-17T03:48:56.008Z,9.50
2022-11-17T03:51:28.759Z,9.40
2022-11-17T03:53:57.830Z,8.30
2022-11-17T03:57:01.855Z,9.20
2022-11-17T03:59:59.446Z,8.80
2022-11-17T04:02:28.550Z,8.80
2022-11-17T04:05:05.718Z,7.40
2022-11-17T04:07:42.527Z,8.80
2022-11-17T04:10:14.613Z,8.50
2022-11-17T04:13:01.831Z,9.10
2022-11-17T04:15:48.972Z,8.30
2022-11-17T04:18:17.355Z,8.70
2022-11-17T04:20:49.548Z,9.20
2022-11-17T04:23:17.909Z,8.10
2022-11-17T04:26:10.515Z,9.50
2022-11-17T04:28:45.649Z,6.40
2022-11-17T04:31:19.489Z,9.30
2022-11-17T04:36:19.654Z,9.20
2022-11-17T04:38:50.524Z,6.90
2022-11-17T04:41:40.604Z,7.80
2022-11-17T04:44:11.393Z,8.10
2022-11-17T04:46:40.942Z,9.90
2022-11-17T04:49:09.287Z,9.50
2022-11-17T04:51:38.029Z,9.90
2022-11-17T04:54:08.272Z,9.10
2022-11-17T04:56:37.315Z,8.40
2022-11-17T04:59:06.257Z,8.20
2022-11-17T05:01:35.541Z,9.40
2022-11-17T05:04:07.394Z,9.40
2022-11-17T05:06:39.739Z,9.00
2022-11-17T05:09:10.479Z,8.10
2022-11-17T05:11:57.839Z,8.50
2022-11-17T05:14:27.452Z,8.50
2022-11-17T05:17:10.078Z,8.60
2022-11-17T05:19:44.581Z,9.40
2022-11-17T05:22:41.626Z,8.70
2022-11-17T05:25:10.507Z,8.30
2022-11-17T05:27:38.830Z,8.80
2022-11-17T05:30:08.880Z,8.10
2022-11-17T05:32:37.214Z,8.60
2022-11-17T05:35:06.034Z,9.30
2022-11-17T05:37:34.375Z,8.50
2022-11-17T05:41:13.430Z,8.80
2022-11-17T05:43:41.812Z,9.40
2022-11-17T05:46:10.541Z,8.40
2022-11-17T05:48:40.280Z,8.80
2022-11-17T05:51:08.677Z,8.40
2022-11-17T05:53:37.698Z,9.40
2022-11-17T05:56:12.218Z,8.70
2022-11-17T05:58:44.641Z,7.80
2022-11-17T06:01:15.256Z,7.30
2022-11-17T06:03:48.080Z,7.70
2022-11-17T06:06:16.455Z,8.30
2022-11-17T06:08:44.769Z,7.90
2022-11-17T06:11:13.203Z,8.30
2022-11-17T06:13:41.558Z,8.80
2022-11-17T06:16:12.960Z,7.90
2022-11-17T06:18:54.018Z,6.80
2022-11-17T06:21:22.958Z,7.60
2022-11-17T06:23:51.674Z,7.80
2022-11-17T06:26:20.617Z,5.70
2022-11-17T06:28:51.875Z,7.40
2022-11-17T06:31:20.806Z,6.80
2022-11-17T06:33:49.273Z,7.30
2022-11-17T06:36:17.772Z,7.90
2022-11-17T06:38:46.123Z,5.90
2022-11-17T06:41:15.534Z,7.50
2022-11-17T06:43:43.922Z,6.90
2022-11-17T06:46:12.348Z,6.60
2022-11-17T06:48:41.000Z,5.60
2022-11-17T06:51:09.260Z,6.40
2022-11-17T06:53:37.868Z,5.70
2022-11-17T06:56:09.907Z,6.30
2022-11-17T06:58:42.024Z,6.30
2022-11-17T07:01:14.253Z,6.40
2022-11-17T07:03:50.229Z,5.50
2022-11-17T07:12:44.183Z,6.80
2022-11-17T07:15:12.588Z,6.90
2022-11-17T07:17:40.954Z,6.60
2022-11-17T07:20:10.830Z,6.40
2022-11-17T07:36:05.854Z,6.70
2022-11-17T07:38:35.969Z,7.70
2022-11-17T07:57:28.992Z,7.40
2022-11-17T08:00:03.570Z,7.40
2022-11-17T08:02:32.921Z,8.10
2022-11-17T08:05:20.057Z,8.00
2022-11-17T08:10:57.310Z,7.40
2022-11-17T08:13:26.261Z,7.60
2022-11-17T08:16:00.863Z,8.50
2022-11-17T08:18:36.804Z,7.80
2022-11-17T08:21:08.772Z,8.50
2022-11-17T08:23:37.744Z,8.00
2022-11-17T08:26:08.280Z,8.60
2022-11-17T08:28:37.929Z,7.50
2022-11-17T08:31:08.130Z,7.60
2022-11-17T08:33:36.529Z,8.10
2022-11-17T08:36:07.382Z,9.30
2022-11-17T08:38:36.542Z,8.00
2022-11-17T08:41:08.286Z,8.00
2022-11-17T08:43:36.781Z,8.70
2022-11-17T08:46:06.663Z,9.00
2022-11-17T08:48:35.623Z,8.00
2022-11-17T08:51:09.153Z,9.10
2022-11-17T08:53:37.559Z,8.10
2022-11-17T08:56:10.849Z,7.30
2022-11-17T08:58:41.123Z,5.20
2022-11-17T09:01:16.240Z,6.70
2022-11-17T09:03:47.011Z,5.80
2022-11-17T09:06:18.323Z,7.20
2022-11-17T09:08:47.612Z,6.70
2022-11-17T09:11:16.995Z,5.40
2022-11-17T09:13:47.296Z,6.60
2022-11-17T09:16:17.265Z,4.80
2022-11-17T09:18:46.518Z,5.80
2022-11-17T09:21:16.274Z,5.90
2022-11-17T09:23:45.218Z,5.50
2022-11-17T09:26:16.126Z,5.00
2022-11-17T09:28:45.434Z,6.00
2022-11-17T09:31:16.782Z,5.70
2022-11-17T09:33:46.334Z,4.90
2022-11-17T09:36:16.663Z,5.40
2022-11-17T09:38:46.993Z,5.40
2022-11-17T09:41:48.532Z,4.70
2022-11-17T09:44:31.811Z,5.30
2022-11-17T09:47:02.994Z,4.50
2022-11-17T09:49:40.251Z,3.60
2022-11-17T09:52:49.881Z,4.70
2022-11-17T09:55:34.554Z,4.70
2022-11-17T09:58:34.572Z,4.90
2022-11-17T10:01:03.552Z,5.00
2022-11-17T10:03:37.430Z,4.90
2022-11-17T10:06:19.683Z,4.50
2022-11-17T10:08:53.581Z,4.50
2022-11-17T10:14:04.551Z,4.30
2022-11-17T10:16:33.045Z,4.30
2022-11-17T10:19:23.219Z,4.40
2022-11-17T10:22:04.022Z,5.00
2022-11-17T10:24:50.680Z,4.60
2022-11-17T10:27:28.870Z,4.70
2022-11-17T10:30:15.413Z,4.10
2022-11-17T10:32:50.982Z,4.00
2022-11-17T10:35:30.624Z,4.50
2022-11-17T10:38:17.364Z,5.00
2022-11-17T10:40:52.437Z,5.00
2022-11-17T10:43:21.645Z,3.80
2022-11-17T10:45:57.396Z,4.40
2022-11-17T10:48:35.954Z,3.80
2022-11-17T10:51:29.472Z,4.60
2022-11-17T10:54:21.442Z,3.80
2022-11-17T10:56:56.481Z,4.70
2022-11-17T10:59:30.345Z,4.00
2022-11-17T11:04:36.313Z,4.80
2022-11-17T11:07:24.755Z,3.50
2022-11-17T11:10:27.331Z,4.50
2022-11-17T11:13:41.011Z,2.60
2022-11-17T11:16:13.028Z,3.70
2022-11-17T11:18:41.338Z,4.00
2022-11-17T11:21:24.862Z,4.20
2022-11-17T11:24:04.195Z,5.50
2022-11-17T11:26:45.062Z,5.10
2022-11-17T11:29:23.829Z,4.90
2022-11-17T11:32:16.978Z,4.40
2022-11-17T11:34:58.327Z,5.90
2022-11-17T11:37:36.413Z,4.70
2022-11-17T11:40:24.494Z,5.10
2022-11-17T11:43:05.082Z,4.50
2022-11-17T11:46:11.621Z,4.70
2022-11-17T11:48:41.572Z,4.40
2022-11-17T11:51:19.992Z,4.60
2022-11-17T11:54:40.501Z,4.50
2022-11-17T11:57:22.722Z,3.60
2022-11-17T11:59:59.480Z,4.20
2022-11-17T12:02:40.784Z,4.60
2022-11-17T12:05:29.649Z,4.30
2022-11-17T12:08:02.591Z,4.30
2022-11-17T12:10:37.326Z,4.80
2022-11-17T12:13:06.202Z,4.40
2022-11-17T12:15:36.093Z,4.40
2022-11-17T12:18:18.979Z,5.50
2022-11-17T12:21:10.963Z,4.60
2022-11-17T12:24:03.888Z,4.20
2022-11-17T12:26:39.055Z,3.80
2022-11-17T12:29:22.421Z,5.00
2022-11-17T12:31:52.951Z,4.10
2022-11-17T12:34:34.374Z,4.10
2022-11-17T12:37:23.350Z,4.80
2022-11-17T12:40:12.229Z,5.30
2022-11-17T12:43:16.871Z,4.80
2022-11-17T12:46:16.470Z,5.20
2022-11-17T12:49:07.187Z,4.70
2022-11-17T12:51:41.548Z,4.80
2022-11-17T12:54:23.116Z,4.60
2022-11-17T12:57:11.740Z,4.80
2022-11-17T13:00:07.857Z,4.70
2022-11-17T13:02:48.186Z,5.30
2022-11-17T13:05:21.049Z,4.90
2022-11-17T13:07:49.823Z,5.60
2022-11-17T13:10:30.287Z,4.90
2022-11-17T13:13:13.240Z,4.50
2022-11-17T13:15:42.780Z,5.10
2022-11-17T13:18:18.436Z,6.20
2022-11-17T13:20:49.362Z,4.40
2022-11-17T13:23:26.638Z,4.30
2022-11-17T13:26:16.783Z,5.30
2022-11-17T13:28:46.145Z,6.00
2022-11-17T13:31:21.431Z,5.80
2022-11-17T13:34:05.305Z,6.10
2022-11-17T13:36:35.273Z,3.80
2022-11-17T13:39:04.132Z,6.40
2022-11-17T13:41:41.114Z,6.10
2022-11-17T13:44:18.769Z,6.00
2022-11-17T13:46:47.284Z,6.00
2022-11-17T13:49:35.047Z,6.40
2022-11-17T13:52:37.099Z,6.80
2022-11-17T13:55:20.497Z,7.30
2022-11-17T13:58:25.881Z,7.90
2022-11-17T14:01:00.609Z,7.10
2022-11-17T14:06:00.422Z,9.20
2022-11-17T14:08:32.439Z,8.80
2022-11-17T14:11:10.306Z,7.80
2022-11-17T14:13:52.041Z,9.70
2022-11-17T14:16:27.518Z,8.30
2022-11-17T14:19:20.727Z,8.20
2022-11-17T14:22:14.300Z,9.30
2022-11-17T14:24:46.209Z,9.30
2022-11-17T14:27:38.981Z,10.20
2022-11-17T14:30:12.402Z,10.10
2022-11-17T14:32:40.787Z,10.50
2022-11-17T14:35:13.563Z,9.30
2022-11-17T14:37:47.060Z,9.90
2022-11-17T14:40:41.129Z,9.10
2022-11-17T14:43:10.228Z,8.50
2022-11-17T14:45:43.134Z,9.40
2022-11-17T14:48:16.175Z,8.10
2022-11-17T14:50:57.683Z,9.80
2022-11-17T14:53:30.719Z,9.40
2022-11-17T14:56:07.132Z,9.20
2022-11-17T14:58:36.290Z,10.70
2022-11-17T15:01:09.710Z,9.90
2022-11-17T15:03:38.209Z,10.10
2022-11-17T15:06:15.229Z,10.60
2022-11-17T15:08:46.853Z,10.70
2022-11-17T15:11:21.730Z,9.70
2022-11-17T15:13:50.432Z,11.70
2022-11-17T15:16:19.122Z,11.70
2022-11-17T15:18:48.992Z,9.90
2022-11-17T15:21:17.395Z,11.60
2022-11-17T15:23:46.272Z,9.70
2022-11-17T15:26:19.857Z,11.30
2022-11-17T15:28:48.239Z,10.90
2022-11-17T15:31:18.978Z,11.30
2022-11-17T15:33:48.575Z,11.30
2022-11-17T15:36:19.671Z,10.20
2022-11-17T15:38:48.214Z,11.10
2022-11-17T15:41:32.773Z,10.90
2022-11-17T15:44:01.585Z,12.30
2022-11-17T15:46:30.009Z,10.70
2022-11-17T15:48:58.560Z,10.80
2022-11-17T15:51:28.390Z,11.20
2022-11-17T15:53:58.989Z,12.20
2022-11-17T15:56:29.823Z,10.40
2022-11-17T15:59:03.426Z,11.60
2022-11-17T16:01:37.478Z,12.30
2022-11-17T16:06:38.025Z,12.60
2022-11-17T16:09:07.203Z,11.30
2022-11-17T16:11:37.148Z,11.20
2022-11-17T16:14:06.236Z,11.00
2022-11-17T16:16:37.025Z,13.60
2022-11-17T16:19:06.334Z,12.70
2022-11-17T16:21:34.798Z,12.70
2022-11-17T16:24:03.623Z,12.30
2022-11-17T16:26:32.173Z,11.50
2022-11-17T16:29:02.679Z,12.90
2022-11-17T16:31:33.302Z,13.40
2022-11-17T16:34:07.386Z,13.70
2022-11-17T16:36:39.011Z,13.80
2022-11-17T16:39:10.091Z,14.00
2022-11-17T16:41:41.017Z,13.50
2022-11-17T16:44:14.918Z,13.20
2022-11-17T16:49:17.229Z,12.40
2022-11-17T16:51:52.128Z,14.70
2022-11-17T16:54:21.312Z,12.60
2022-11-17T16:56:49.851Z,15.70
2022-11-17T16:59:18.545Z,14.70
2022-11-17T17:01:48.117Z,14.10
2022-11-17T17:04:16.484Z,14.10
2022-11-17T17:06:46.016Z,16.20
2022-11-17T17:09:18.040Z,16.10
2022-11-17T17:11:49.883Z,13.50
2022-11-17T17:14:18.288Z,13.80
2022-11-17T17:16:46.751Z,16.80
2022-11-17T17:19:16.451Z,15.50
2022-11-17T17:24:38.283Z,15.90
2022-11-17T17:27:07.879Z,17.90
2022-11-17T17:29:36.834Z,18.20
2022-11-17T17:32:05.537Z,18.60
2022-11-17T17:34:34.425Z,19.00
2022-11-17T17:37:03.100Z,17.90
2022-11-17T17:39:33.113Z,18.40
2022-11-17T17:42:02.725Z,18.90
2022-11-17T17:44:31.905Z,16.90
2022-11-17T17:47:01.314Z,17.30
2022-11-17T17:49:29.848Z,16.10
2022-11-17T17:51:59.138Z,14.80
2022-11-17T17:54:27.675Z,15.10
2022-11-17T17:56:58.592Z,15.50
2022-11-17T17:59:28.395Z,16.50
2022-11-17T18:01:57.377Z,14.50
2022-11-17T18:04:26.695Z,15.10
2022-11-17T18:06:58.208Z,13.50
2022-11-17T18:09:27.454Z,14.50
2022-11-17T18:12:00.533Z,14.70
2022-11-17T18:14:29.711Z,15.00
2022-11-17T18:16:59.209Z,14.90
2022-11-17T18:19:32.702Z,16.90
2022-11-17T18:22:03.717Z,15.40
2022-11-17T18:24:32.998Z,16.30
2022-11-17T18:27:02.447Z,15.70
2022-11-17T18:29:31.650Z,13.70
2022-11-17T18:32:01.589Z,16.10
2022-11-17T18:34:39.691Z,16.50
2022-11-17T18:37:09.008Z,16.50
2022-11-17T18:39:39.063Z,16.30
2022-11-17T18:42:09.143Z,16.50
2022-11-17T18:44:38.622Z,14.30
2022-11-17T18:47:09.029Z,17.90
2022-11-17T18:49:40.536Z,16.20
2022-11-17T18:52:11.379Z,14.70
2022-11-17T18:54:41.028Z,15.80
2022-11-17T18:57:10.436Z,17.60
2022-11-17T18:59:40.002Z,17.70
2022-11-17T19:02:09.514Z,16.30
2022-11-17T19:04:39.178Z,16.30
2022-11-17T19:07:09.146Z,15.90
2022-11-17T19:09:38.781Z,17.00
2022-11-17T19:12:10.519Z,18.20
2022-11-17T19:14:41.724Z,18.40
2022-11-17T19:17:10.849Z,19.80
2022-11-17T19:19:39.683Z,20.10
2022-11-17T19:22:09.572Z,17.30
2022-11-17T19:24:41.060Z,18.90
2022-11-17T19:27:11.315Z,16.20
2022-11-17T19:29:42.221Z,17.20
2022-11-17T19:32:12.798Z,20.10
2022-11-17T19:34:42.522Z,19.30
2022-11-17T19:37:12.267Z,19.30
2022-11-17T19:39:42.706Z,19.40
2022-11-17T19:42:13.026Z,19.10
2022-11-17T19:44:42.946Z,19.30
2022-11-17T19:47:12.395Z,21.20
2022-11-17T19:49:47.791Z,20.30
2022-11-17T19:52:19.853Z,20.90
2022-11-17T19:54:50.149Z,17.90
2022-11-17T19:57:19.242Z,17.70
2022-11-17T19:59:49.283Z,18.60
2022-11-17T20:02:22.908Z,17.30
2022-11-17T20:07:24.652Z,18.70
2022-11-17T20:09:56.078Z,18.30
2022-11-17T20:12:27.725Z,19.10
2022-11-17T20:14:57.194Z,18.60
2022-11-17T20:17:28.271Z,22.10
2022-11-17T20:20:00.318Z,19.00
2022-11-17T20:22:38.421Z,19.70
2022-11-17T20:25:09.308Z,17.10
2022-11-17T20:27:45.139Z,19.30
2022-11-17T20:30:18.933Z,16.10
2022-11-17T20:32:52.748Z,17.50
2022-11-17T20:35:21.567Z,18.40
2022-11-17T20:37:50.463Z,17.80
2022-11-17T20:40:23.196Z,19.50
2022-11-17T20:42:54.053Z,19.20
2022-11-17T20:45:24.185Z,18.40
2022-11-17T20:47:53.071Z,20.30
2022-11-17T20:50:22.614Z,18.90
2022-11-17T20:52:51.674Z,19.70
2022-11-17T20:55:25.278Z,21.00
2022-11-17T20:57:54.481Z,17.30
2022-11-17T21:00:23.084Z,21.40
2022-11-17T21:02:52.060Z,20.40
2022-11-17T21:05:20.992Z,19.60
2022-11-17T21:07:49.939Z,17.40
2022-11-17T21:10:19.004Z,18.40
2022-11-17T21:12:47.675Z,18.20
2022-11-17T21:15:16.181Z,19.70
2022-11-17T21:18:03.384Z,18.00
2022-11-17T21:20:33.727Z,19.30
2022-11-17T21:23:02.330Z,19.80
2022-11-17T21:25:31.626Z,19.20
2022-11-17T21:27:59.948Z,18.70
2022-11-17T21:30:28.413Z,21.80
2022-11-17T21:32:57.154Z,20.00
2022-11-17T21:35:26.073Z,19.80
2022-11-17T21:37:55.978Z,19.60
2022-11-17T21:40:26.725Z,19.30
2022-11-17T21:42:55.383Z,20.40
2022-11-17T21:45:23.824Z,20.10
2022-11-17T21:47:56.590Z,19.70
2022-11-17T21:50:27.761Z,19.10
2022-11-17T21:52:56.320Z,20.20
2022-11-17T21:55:25.049Z,19.00
2022-11-17T21:57:53.474Z,19.10
2022-11-17T22:00:21.997Z,20.10
2022-11-17T22:02:50.407Z,20.50
2022-11-17T22:05:18.724Z,20.00
2022-11-17T22:07:47.044Z,21.20
2022-11-17T22:10:15.785Z,19.30
2022-11-17T22:12:44.177Z,18.20
2022-11-17T22:15:12.531Z,16.40
2022-11-17T22:17:40.839Z,19.20
2022-11-17T22:20:10.561Z,18.40
2022-11-17T22:22:38.886Z,17.70
2022-11-17T22:25:23.137Z,19.20
2022-11-17T22:27:55.602Z,18.20
2022-11-17T22:30:23.949Z,18.40
2022-11-17T22:32:52.248Z,20.20
2022-11-17T22:35:20.557Z,15.70
2022-11-17T22:37:49.834Z,19.50
2022-11-17T22:40:45.442Z,17.50
2022-11-17T22:43:15.468Z,17.10
2022-11-17T22:45:44.173Z,18.30
2022-11-17T22:48:12.539Z,18.70
2022-11-17T22:50:40.956Z,18.70
2022-11-17T22:53:09.232Z,18.60
2022-11-17T22:55:37.631Z,19.60
2022-11-17T22:58:06.205Z,17.00
2022-11-17T23:00:34.488Z,17.00
2022-11-17T23:03:02.911Z,18.60
2022-11-17T23:05:31.991Z,18.10
2022-11-17T23:08:03.054Z,19.00
2022-11-17T23:10:33.717Z,19.00
2022-11-17T23:13:02.065Z,18.60
2022-11-17T23:15:32.361Z,19.50
2022-11-17T23:18:00.680Z,18.20
2022-11-17T23:20:29.069Z,18.50
2022-11-17T23:22:57.429Z,18.30
2022-11-17T23:25:25.739Z,17.90
2022-11-17T23:27:54.042Z,18.10
2022-11-17T23:30:22.845Z,17.20
2022-11-17T23:32:54.684Z,15.40
2022-11-17T23:35:23.546Z,16.00
2022-11-17T23:37:51.936Z,16.50
2022-11-17T23:40:20.476Z,16.00
2022-11-17T23:42:48.819Z,15.60
2022-11-17T23:45:17.239Z,15.70
2022-11-17T23:47:45.595Z,16.20
2022-11-17T23:50:13.865Z,15.20
2022-11-17T23:52:42.180Z,15.90
2022-11-17T23:55:10.498Z,16.70
2022-11-17T23:57:39.723Z,14.40
